Kansai — JD3272 — position and weather

sailwx.info

Track history (hours):
 
Tides and Currents Weather Stations Pressure Air Temp Water Temp Dewpoint Dewpoint Depression Visibility Wind Speed Wind Dir Waves Ship Positions

Kansai

Last reported at 2017-Feb-20 02:23 UTC. Time now 2017-Feb-23 04:53 UTC.
Position N 34°02' E 135°02'.

Length 73 m; draft 4.2 m.

Type: Cargo ship. MMSI: 431003134.

Date/timePositionNaut miles runAvg speedWind from/ knotsBaromVisibWave heightAir tempDewpointWater temp
2017-Feb-20 02:23N 34°02' E 135°02'8 9.1
2017-Feb-20 01:28N 34°10' E 135°00'19 9.8
2017-Feb-19 23:33N 34°29' E 135°02'9 7.4
2017-Feb-19 22:20N 34°36' E 134°56'  
2017-Feb-17 03:28N 33°59' E 135°01'8 8.4
2017-Feb-17 02:33N 34°07' E 134°60'8 7.5
2017-Feb-17 01:33N 34°14' E 134°59'9 8.0
2017-Feb-17 00:25N 34°23' E 134°60'8 9.5
2017-Feb-16 23:33N 34°31' E 135°02'8 7.1
2017-Feb-16 22:29N 34°36' E 134°55'8 0.3
2017-Feb-15 18:17N 34°41' E 134°47'4 3.7
2017-Feb-15 17:18N 34°39' E 134°51'6 7.9
2017-Feb-15 16:33N 34°38' E 134°58'9 9.3
2017-Feb-15 15:33N 34°30' E 135°04'234 7.7
2017-Feb-14 09:11N 35°19' E 139°43'610.3
2017-Feb-14 08:33N 35°25' E 139°44'1111.0
2017-Feb-14 07:33N 35°33' E 139°54'6 0.7
2017-Feb-13 22:32N 35°39' E 139°58'4 0.4
2017-Feb-13 11:33N 35°35' E 139°56'1010.4
2017-Feb-13 10:33N 35°26' E 139°49'10 9.6
2017-Feb-13 09:33N 35°17' E 139°45'247 9.3
2017-Feb-12 07:04N 33°59' E 135°00'611.7
2017-Feb-12 06:33N 34°05' E 134°59'2311.6
2017-Feb-12 04:33N 34°28' E 135°02'10 8.0
2017-Feb-12 03:15N 34°37' E 134°55'7 0.4
2017-Feb-11 09:24N 34°41' E 134°48'  
Track history (hours):
 
Tides and Currents Weather Stations Pressure Air Temp Water Temp Dewpoint Dewpoint Depression Visibility Wind Speed Wind Dir Waves Ship Positions

Kansai

Last reported at 2017-Feb-20 02:23 UTC. Time now 2017-Feb-23 04:53 UTC.
Position N 34°02' E 135°02'.

Length 73 m; draft 4.2 m.

Type: Cargo ship. MMSI: 431003134.

Date/timePositionNaut miles runAvg speedWind from/ knotsBaromVisibWave heightAir tempDewpointWater temp
2017-Feb-20 02:23N 34°02' E 135°02'8 9.1
2017-Feb-20 01:28N 34°10' E 135°00'19 9.8
2017-Feb-19 23:33N 34°29' E 135°02'9 7.4
2017-Feb-19 22:20N 34°36' E 134°56'  
2017-Feb-17 03:28N 33°59' E 135°01'8 8.4
2017-Feb-17 02:33N 34°07' E 134°60'8 7.5
2017-Feb-17 01:33N 34°14' E 134°59'9 8.0
2017-Feb-17 00:25N 34°23' E 134°60'8 9.5
2017-Feb-16 23:33N 34°31' E 135°02'8 7.1
2017-Feb-16 22:29N 34°36' E 134°55'8 0.3
2017-Feb-15 18:17N 34°41' E 134°47'4 3.7
2017-Feb-15 17:18N 34°39' E 134°51'6 7.9
2017-Feb-15 16:33N 34°38' E 134°58'9 9.3
2017-Feb-15 15:33N 34°30' E 135°04'234 7.7
2017-Feb-14 09:11N 35°19' E 139°43'610.3
2017-Feb-14 08:33N 35°25' E 139°44'1111.0
2017-Feb-14 07:33N 35°33' E 139°54'6 0.7
2017-Feb-13 22:32N 35°39' E 139°58'4 0.4
2017-Feb-13 11:33N 35°35' E 139°56'1010.4
2017-Feb-13 10:33N 35°26' E 139°49'10 9.6
2017-Feb-13 09:33N 35°17' E 139°45'247 9.3
2017-Feb-12 07:04N 33°59' E 135°00'611.7
2017-Feb-12 06:33N 34°05' E 134°59'2311.6
2017-Feb-12 04:33N 34°28' E 135°02'10 8.0
2017-Feb-12 03:15N 34°37' E 134°55'7 0.4
2017-Feb-11 09:24N 34°41' E 134°48'  

Dump ship's entire track history